Terminal Aerodrome Forecast
Issued by NWS Des Moines, IA

Home | Current Version | Previous Version | Text Only | Print | Product List | Glossary On
Versions: 1 2 3 4 5 6 7 8 9 10 11 12 13 14 15 16 17
000
FTUS43 KDMX 241138
TAFALO
TAF
KALO 241138Z 2412/2512 12018G26KT P6SM -TSRA OVC050CB
     FM241300 12017G25KT P6SM VCSH OVC050
     FM241500 12014KT P6SM -SHRA SCT015 OVC025
     FM242000 18009KT P6SM BKN030
     FM242300 33009KT P6SM BKN100
     FM250700 30005KT P6SM SKC=

USA.gov is the U.S. government's official web portal to all federal, state and local government web resources and services.